Time,TemperatureF,DewpointF,PressureIn,WindDirection,WindDirectionDegrees,WindSpeedMPH,WindSpeedGustMPH,Humidity,HourlyPrecipIn,Conditions,Clouds,dailyrainin,SolarRadiationWatts/m^2,SoftwareType,DateUTC
2013-08-11 00:01:00,71.0,71.0,-100.00,NNW,332,2.0,3.0,99,0.00,,,0.03,0.000000,,2013-08-11 04:01:00,
2013-08-11 00:02:00,71.0,71.0,-100.00,SSW,202,0.0,2.0,99,0.00,,,0.03,0.000000,,2013-08-11 04:02:00,
2013-08-11 00:22:00,71.0,71.0,-100.00,SSW,202,0.0,2.0,99,0.00,,,0.03,0.000000,,2013-08-11 04:22:00,
2013-08-11 00:32:00,71.0,71.0,-100.00,SSW,202,0.0,2.0,99,0.00,,,0.03,0.000000,,2013-08-11 04:32:00,
2013-08-11 00:43:00,71.0,71.0,-100.00,SSW,202,0.0,2.0,99,0.00,,,0.03,0.000000,,2013-08-11 04:43:00,
2013-08-11 00:53:00,71.0,71.0,-100.00,SSW,202,0.0,2.0,99,0.00,,,0.03,0.000000,,2013-08-11 04:53:00,
2013-08-11 01:02:00,71.0,71.0,-100.00,SSE,168,0.0,3.0,99,0.00,,,0.03,0.000000,,2013-08-11 05:02:00,
2013-08-11 01:25:00,71.0,71.0,-100.00,SSE,168,0.0,3.0,99,0.00,,,0.03,0.000000,,2013-08-11 05:25:00,
2013-08-11 01:38:00,71.0,71.0,-100.00,SSE,168,0.0,3.0,99,0.00,,,0.03,0.000000,,2013-08-11 05:38:00,
2013-08-11 01:50:00,71.0,71.0,-100.00,SSE,168,0.0,3.0,99,0.00,,,0.03,0.000000,,2013-08-11 05:50:00,
2013-08-11 02:27:00,70.0,70.0,-100.00,North,357,0.0,1.0,99,0.00,,,0.03,0.000000,,2013-08-11 06:27:00,
2013-08-11 02:38:00,70.0,70.0,-100.00,North,357,0.0,1.0,99,0.00,,,0.03,0.000000,,2013-08-11 06:38:00,
2013-08-11 02:49:00,70.0,70.0,-100.00,North,357,0.0,1.0,99,0.00,,,0.03,0.000000,,2013-08-11 06:49:00,
2013-08-11 02:57:00,70.0,70.0,-100.00,North,357,0.0,1.0,99,0.00,,,0.03,0.000000,,2013-08-11 06:57:00,
2013-08-11 03:02:00,70.0,70.0,-100.00,ENE,64,0.0,0.0,99,0.00,,,0.03,0.000000,,2013-08-11 07:02:00,
2013-08-11 03:26:00,70.0,70.0,-100.00,ENE,64,0.0,0.0,99,0.00,,,0.03,0.000000,,2013-08-11 07:26:00,
2013-08-11 03:38:00,70.0,70.0,-100.00,ENE,64,0.0,0.0,99,0.00,,,0.03,0.000000,,2013-08-11 07:38:00,
2013-08-11 03:47:00,70.0,70.0,-100.00,ENE,64,0.0,0.0,99,0.00,,,0.03,0.000000,,2013-08-11 07:47:00,
2013-08-11 03:56:00,70.0,70.0,-100.00,ENE,64,0.0,0.0,99,0.00,,,0.03,0.000000,,2013-08-11 07:56:00,
2013-08-11 04:02:00,69.0,69.0,-100.00,North,357,1.0,2.0,99,0.00,,,0.03,0.000000,,2013-08-11 08:02:00,
2013-08-11 04:27:00,69.0,69.0,-100.00,North,357,1.0,2.0,99,0.00,,,0.03,0.000000,,2013-08-11 08:27:00,
2013-08-11 04:37:00,69.0,69.0,-100.00,North,357,1.0,2.0,99,0.00,,,0.03,0.000000,,2013-08-11 08:37:00,
2013-08-11 04:49:00,69.0,69.0,-100.00,North,357,1.0,2.0,99,0.00,,,0.03,0.000000,,2013-08-11 08:49:00,
2013-08-11 04:59:00,69.0,69.0,-100.00,North,357,1.0,2.0,99,0.00,,,0.03,0.000000,,2013-08-11 08:59:00,
2013-08-11 05:02:00,69.0,69.0,-100.00,North,350,1.0,2.0,100,0.00,,,0.03,0.000000,,2013-08-11 09:02:00,
2013-08-11 05:30:00,69.0,69.0,-100.00,North,350,1.0,2.0,100,0.00,,,0.03,0.000000,,2013-08-11 09:30:00,
2013-08-11 05:37:00,69.0,69.0,-100.00,North,350,1.0,2.0,100,0.00,,,0.03,0.000000,,2013-08-11 09:37:00,
2013-08-11 05:44:00,69.0,69.0,-100.00,North,350,1.0,2.0,100,0.00,,,0.03,0.000000,,2013-08-11 09:44:00,
2013-08-11 06:01:00,69.0,69.0,-100.00,North,350,1.0,2.0,100,0.00,,,0.03,0.000000,,2013-08-11 10:01:00,
2013-08-11 06:02:00,68.0,68.0,-100.00,South,176,1.0,2.0,99,0.01,,,0.04,0.000000,,2013-08-11 10:02:00,
2013-08-11 06:29:00,68.0,68.0,-100.00,South,176,1.0,2.0,99,0.01,,,0.04,0.000000,,2013-08-11 10:29:00,
2013-08-11 06:38:00,68.0,68.0,-100.00,South,176,1.0,2.0,99,0.01,,,0.04,0.000000,,2013-08-11 10:38:00,
2013-08-11 06:47:00,68.0,68.0,-100.00,South,176,1.0,2.0,99,0.01,,,0.04,0.000000,,2013-08-11 10:47:00,
2013-08-11 06:57:00,68.0,68.0,-100.00,South,176,1.0,2.0,99,0.01,,,0.04,0.000000,,2013-08-11 10:57:00,
2013-08-11 07:02:00,68.0,68.0,-100.00,SE,142,0.0,1.0,100,0.00,,,-99.99,0.000000,,2013-08-11 11:02:00,
2013-08-11 07:24:00,68.0,68.0,-100.00,SE,142,0.0,1.0,100,0.00,,,-99.99,0.000000,,2013-08-11 11:24:00,
2013-08-11 07:40:00,68.0,68.0,-100.00,SE,142,0.0,1.0,100,0.00,,,-99.99,0.000000,,2013-08-11 11:40:00,
2013-08-11 07:50:00,68.0,68.0,-100.00,SE,142,0.0,1.0,100,0.00,,,-99.99,0.000000,,2013-08-11 11:50:00,
2013-08-11 08:00:00,68.0,68.0,-100.00,SE,142,0.0,1.0,100,0.00,,,-99.99,0.000000,,2013-08-11 12:00:00,
2013-08-11 08:02:00,68.0,68.0,-100.00,SSE,164,0.0,2.0,100,0.00,,,-99.99,18.000000,,2013-08-11 12:02:00,
2013-08-11 08:31:00,68.0,68.0,-100.00,SSE,164,0.0,2.0,100,0.00,,,-99.99,18.000000,,2013-08-11 12:31:00,
2013-08-11 08:37:00,68.0,68.0,-100.00,SSE,164,0.0,2.0,100,0.00,,,-99.99,18.000000,,2013-08-11 12:37:00,
2013-08-11 08:47:00,68.0,68.0,-100.00,SSE,164,0.0,2.0,100,0.00,,,-99.99,18.000000,,2013-08-11 12:47:00,
2013-08-11 08:56:00,68.0,68.0,-100.00,SSE,164,0.0,2.0,100,0.00,,,-99.99,18.000000,,2013-08-11 12:56:00,
2013-08-11 09:02:00,71.0,71.0,-100.00,North,353,1.0,2.0,99,0.00,,,-99.99,86.000000,,2013-08-11 13:02:00,
2013-08-11 09:27:00,71.0,71.0,-100.00,North,353,1.0,2.0,99,0.00,,,-99.99,86.000000,,2013-08-11 13:27:00,
2013-08-11 09:41:00,71.0,71.0,-100.00,North,353,1.0,2.0,99,0.00,,,-99.99,86.000000,,2013-08-11 13:41:00,
2013-08-11 09:48:00,71.0,71.0,-100.00,North,353,1.0,2.0,99,0.00,,,-99.99,86.000000,,2013-08-11 13:48:00,
2013-08-11 09:58:00,71.0,71.0,-100.00,North,353,1.0,2.0,99,0.00,,,-99.99,86.000000,,2013-08-11 13:58:00,
2013-08-11 10:02:00,81.0,76.0,-100.00,West,277,3.0,5.0,85,0.00,,,0.04,405.000000,,2013-08-11 14:02:00,
2013-08-11 10:24:00,81.0,76.0,-100.00,West,277,3.0,5.0,85,0.00,,,0.04,405.000000,,2013-08-11 14:24:00,
2013-08-11 10:36:00,81.0,76.0,-100.00,West,277,3.0,5.0,85,0.00,,,0.04,405.000000,,2013-08-11 14:36:00,
2013-08-11 10:49:00,81.0,76.0,-100.00,West,277,3.0,5.0,85,0.00,,,0.04,405.000000,,2013-08-11 14:49:00,
2013-08-11 10:57:00,81.0,76.0,-100.00,West,277,3.0,5.0,85,0.00,,,0.04,405.000000,,2013-08-11 14:57:00,
2013-08-11 11:02:00,84.0,74.0,-100.00,West,265,3.0,6.0,72,0.00,,,0.04,563.000000,,2013-08-11 15:02:00,
2013-08-11 11:24:00,84.0,74.0,-100.00,West,265,3.0,6.0,72,0.00,,,0.04,563.000000,,2013-08-11 15:24:00,
2013-08-11 11:41:00,84.0,74.0,-100.00,West,265,3.0,6.0,72,0.00,,,0.04,563.000000,,2013-08-11 15:41:00,
2013-08-11 11:49:00,84.0,74.0,-100.00,West,265,3.0,6.0,72,0.00,,,0.04,563.000000,,2013-08-11 15:49:00,
2013-08-11 12:00:00,84.0,74.0,-100.00,West,265,3.0,6.0,72,0.00,,,0.04,563.000000,,2013-08-11 16:00:00,
2013-08-11 12:02:00,85.0,75.0,-100.00,West,270,3.0,7.0,71,0.00,,,0.04,689.000000,,2013-08-11 16:02:00,
2013-08-11 12:29:00,85.0,75.0,-100.00,West,270,3.0,7.0,71,0.00,,,0.04,689.000000,,2013-08-11 16:29:00,
2013-08-11 12:41:00,85.0,75.0,-100.00,West,270,3.0,7.0,71,0.00,,,0.04,689.000000,,2013-08-11 16:41:00,
2013-08-11 12:47:00,85.0,75.0,-100.00,West,270,3.0,7.0,71,0.00,,,0.04,689.000000,,2013-08-11 16:47:00,
2013-08-11 12:59:00,85.0,75.0,-100.00,West,270,3.0,7.0,71,0.00,,,0.04,689.000000,,2013-08-11 16:59:00,
2013-08-11 13:02:00,87.0,76.0,-100.00,South,176,2.0,8.0,70,0.00,,,0.04,758.000000,,2013-08-11 17:02:00,
2013-08-11 13:26:00,87.0,76.0,-100.00,South,176,2.0,8.0,70,0.00,,,0.04,758.000000,,2013-08-11 17:26:00,
2013-08-11 13:38:00,87.0,76.0,-100.00,South,176,2.0,8.0,70,0.00,,,0.04,758.000000,,2013-08-11 17:38:00,
2013-08-11 13:48:00,87.0,76.0,-100.00,South,176,2.0,8.0,70,0.00,,,0.04,758.000000,,2013-08-11 17:48:00,
2013-08-11 13:58:00,87.0,76.0,-100.00,South,176,2.0,8.0,70,0.00,,,0.04,758.000000,,2013-08-11 17:58:00,
2013-08-11 14:02:00,89.0,75.0,-100.00,SSE,161,3.0,7.0,63,0.00,,,0.04,921.000000,,2013-08-11 18:02:00,
2013-08-11 14:30:00,89.0,75.0,-100.00,SSE,161,3.0,7.0,63,0.00,,,0.04,921.000000,,2013-08-11 18:30:00,
2013-08-11 14:40:00,89.0,75.0,-100.00,SSE,161,3.0,7.0,63,0.00,,,0.04,921.000000,,2013-08-11 18:40:00,
2013-08-11 14:57:00,89.0,75.0,-100.00,SSE,161,3.0,7.0,63,0.00,,,0.04,921.000000,,2013-08-11 18:57:00,
2013-08-11 15:02:00,86.0,74.0,-100.00,WSW,240,3.0,7.0,67,0.00,,,0.04,693.000000,,2013-08-11 19:02:00,
2013-08-11 15:27:00,86.0,74.0,-100.00,WSW,240,3.0,7.0,67,0.00,,,0.04,693.000000,,2013-08-11 19:27:00,
2013-08-11 15:35:00,86.0,74.0,-100.00,WSW,240,3.0,7.0,67,0.00,,,0.04,693.000000,,2013-08-11 19:35:00,
2013-08-11 15:51:00,86.0,74.0,-100.00,WSW,240,3.0,7.0,67,0.00,,,0.04,693.000000,,2013-08-11 19:51:00,
2013-08-11 16:00:00,86.0,74.0,-100.00,WSW,240,3.0,7.0,67,0.00,,,0.04,693.000000,,2013-08-11 20:00:00,
2013-08-11 16:02:00,89.0,73.0,-100.00,SW,234,3.0,7.0,60,0.00,,,0.04,828.000000,,2013-08-11 20:02:00,
2013-08-11 16:28:00,89.0,73.0,-100.00,SW,234,3.0,7.0,60,0.00,,,0.04,828.000000,,2013-08-11 20:28:00,
2013-08-11 16:40:00,89.0,73.0,-100.00,SW,234,3.0,7.0,60,0.00,,,0.04,828.000000,,2013-08-11 20:40:00,
2013-08-11 16:50:00,89.0,73.0,-100.00,SW,234,3.0,7.0,60,0.00,,,0.04,828.000000,,2013-08-11 20:50:00,
2013-08-11 16:59:00,89.0,73.0,-100.00,SW,234,3.0,7.0,60,0.00,,,0.04,828.000000,,2013-08-11 20:59:00,
2013-08-11 17:02:00,89.0,72.0,-100.00,WNW,288,2.0,7.0,57,0.00,,,0.04,662.000000,,2013-08-11 21:02:00,
2013-08-11 17:50:00,89.0,72.0,-100.00,WNW,288,2.0,7.0,57,0.00,,,0.04,662.000000,,2013-08-11 21:50:00,
2013-08-11 17:59:00,89.0,72.0,-100.00,WNW,288,2.0,7.0,57,0.00,,,0.04,662.000000,,2013-08-11 21:59:00,
2013-08-11 18:02:00,83.0,75.0,-100.00,NNW,344,2.0,7.0,78,0.00,,,0.04,371.000000,,2013-08-11 22:02:00,
2013-08-11 18:36:00,83.0,75.0,-100.00,NNW,344,2.0,7.0,78,0.00,,,0.04,371.000000,,2013-08-11 22:36:00,
2013-08-11 18:48:00,83.0,75.0,-100.00,NNW,344,2.0,7.0,78,0.00,,,0.04,371.000000,,2013-08-11 22:48:00,
2013-08-11 18:58:00,83.0,75.0,-100.00,NNW,344,2.0,7.0,78,0.00,,,0.04,371.000000,,2013-08-11 22:58:00,
2013-08-11 19:02:00,80.0,74.0,-100.00,WSW,246,1.0,3.0,83,0.00,,,0.01,118.000000,,2013-08-11 23:02:00,
2013-08-11 19:30:00,80.0,74.0,-100.00,WSW,246,1.0,3.0,83,0.00,,,0.01,118.000000,,2013-08-11 23:30:00,
2013-08-11 19:37:00,80.0,74.0,-100.00,WSW,246,1.0,3.0,83,0.00,,,0.01,118.000000,,2013-08-11 23:37:00,
2013-08-11 20:02:00,79.0,75.0,-100.00,NNE,30,1.0,2.0,87,0.00,,,0.01,10.000000,,2013-08-12 00:02:00,
2013-08-11 20:26:00,79.0,75.0,-100.00,NNE,30,1.0,2.0,87,0.00,,,0.01,10.000000,,2013-08-12 00:26:00,
2013-08-11 20:38:00,79.0,75.0,-100.00,NNE,30,1.0,2.0,87,0.00,,,0.01,10.000000,,2013-08-12 00:38:00,
2013-08-11 20:52:00,79.0,75.0,-100.00,NNE,30,1.0,2.0,87,0.00,,,0.01,10.000000,,2013-08-12 00:52:00,
2013-08-11 20:59:00,79.0,75.0,-100.00,NNE,30,1.0,2.0,87,0.00,,,0.01,10.000000,,2013-08-12 00:59:00,
2013-08-11 21:02:00,76.0,72.0,-100.00,SW,228,3.0,10.0,86,0.00,,,0.01,1.000000,,2013-08-12 01:02:00,
2013-08-11 21:26:00,76.0,72.0,-100.00,SW,228,3.0,10.0,86,0.00,,,0.01,1.000000,,2013-08-12 01:26:00,
2013-08-11 21:40:00,76.0,72.0,-100.00,SW,228,3.0,10.0,86,0.00,,,0.01,1.000000,,2013-08-12 01:40:00,
2013-08-11 21:48:00,76.0,72.0,-100.00,SW,228,3.0,10.0,86,0.00,,,0.01,1.000000,,2013-08-12 01:48:00,
2013-08-11 21:56:00,76.0,72.0,-100.00,SW,228,3.0,10.0,86,0.00,,,0.01,1.000000,,2013-08-12 01:56:00,
2013-08-11 22:02:00,73.0,71.0,-100.00,NNE,31,0.0,4.0,93,0.00,,,0.01,0.000000,,2013-08-12 02:02:00,
2013-08-11 22:25:00,73.0,71.0,-100.00,NNE,31,0.0,4.0,93,0.00,,,0.01,0.000000,,2013-08-12 02:25:00,
2013-08-11 22:37:00,73.0,71.0,-100.00,NNE,31,0.0,4.0,93,0.00,,,0.01,0.000000,,2013-08-12 02:37:00,
2013-08-11 22:50:00,73.0,71.0,-100.00,NNE,31,0.0,4.0,93,0.00,,,0.01,0.000000,,2013-08-12 02:50:00,
2013-08-11 23:00:00,73.0,71.0,-100.00,NNE,31,0.0,4.0,93,0.00,,,0.01,0.000000,,2013-08-12 03:00:00,
2013-08-11 23:02:00,72.0,70.0,-100.00,South,178,1.0,2.0,94,0.00,,,0.01,0.000000,,2013-08-12 03:02:00,
2013-08-11 23:25:00,72.0,70.0,-100.00,South,178,1.0,2.0,94,0.00,,,0.01,0.000000,,2013-08-12 03:25:00,
2013-08-11 23:39:00,72.0,70.0,-100.00,South,178,1.0,2.0,94,0.00,,,0.01,0.000000,,2013-08-12 03:39:00,
2013-08-11 23:48:00,72.0,70.0,-100.00,South,178,1.0,2.0,94,0.00,,,0.01,0.000000,,2013-08-12 03:48:00,